Aérodrome :
LOGIN :

S'inscrire | Disclaimer

   EN    FR    IT 

 










Légende :    VFR   VFR Marginal   IFR   IFR Intensif   IFR Très Intensif
Visi : 
Plafond : 
>= 8 km
>= 3000ft
5 à 8 km
1000 à 3000 ft
1500m à 5 km
500 à 1000 ft
800 à 1500m
200 à 500 ft
< 800m
< 200 ft
Symboles :   Orages  Brouillard  Fortes neiges  Fortes précipitations  Vent > 20 kt
SIGMETs :   Divers  Orages  Givrage  Turbulence  Onde Orograph.  Cendres Volcan.







- Altitude de l'aérodrome : 309 ft
- Code IATA : FNI
- Voir les cartes d'approche


LFTW - Nîmes Garons

DERNIER METAR :
  • 232130Z AUTO 35007KT CAVOK 08/03 Q1026

METARs EXPIRÉS :
  • 232100Z AUTO 34005KT CAVOK 08/03 Q1026
  • 232030Z AUTO 35008KT CAVOK 09/04 Q1026
  • 232000Z AUTO 35010KT CAVOK 10/04 Q1026
  • 231930Z AUTO 36010KT CAVOK 10/04 Q1026
  • 231900Z AUTO 35007KT CAVOK 10/03 Q1026 NOSIG

TAF TAF LFTW
Valide du 23 à 15h jusqu'au 24 à 15h UTC


231400Z 2315/2415 34010KT CAVOK
BECMG 2402/2404 VRB03KT
BECMG 2407/2409 BKN012
BECMG 2408/2410 BKN012
BECMG 2410/2412 16012KT
Pas de NOTAMs connus pour ce terrain.



MET'MAP, la Météo Aéronautique d'un coup d'oeil ! - Copyright ORBIFLY Décembre 2007 - Disclaimer

ORBIFLY MET'MAP TEAM :

Programmation & Développement : Alexandra Zaïnal
Conception & Développement : Baudouin d'Aumeries
Co-Programmation & Développement : Marc-Olivier Méhu
Soutien technique & logistique : Manuel Goepfert

Contact : metmap@orbifly.com




SOURCES & CREDITS :

   NOAA